Time;durP1;ratioP1;P1;durP2;ratioP2;P2;SDS_P1;SDS_P2;PMS_P1;PMS_P2;Temp;Humidity;BMP_temperature;BMP_pressure;BME280_temperature;BME280_humidity;BME280_pressure;Samples;Min_cycle;Max_cycle;Signal;HPM_P1;HPM_P2
2022/09/08 00:00:23;;;;;;;4.93;4.00;;;;;;;9.91;73.80;99240.50;5056581;28;20465;-65
2022/09/08 00:02:47;;;;;;;5.57;3.97;;;;;;;9.90;73.73;99237.97;5056530;28;20059;-64
2022/09/08 00:05:14;;;;;;;5.40;4.20;;;;;;;9.90;73.47;99240.63;5038661;28;20091;-62
2022/09/08 00:07:41;;;;;;;4.90;4.00;;;;;;;9.89;73.60;99242.44;5056374;28;20058;-70
2022/09/08 00:10:05;;;;;;;6.60;4.28;;;;;;;9.89;73.77;99239.75;5056437;28;20120;-70
2022/09/08 00:12:30;;;;;;;5.55;4.63;;;;;;;9.89;73.30;99249.56;5038361;28;20044;-70
2022/09/08 00:14:57;;;;;;;4.53;3.85;;;;;;;9.89;73.28;99246.91;5056872;28;20040;-70
2022/09/08 00:17:23;;;;;;;4.55;3.63;;;;;;;9.88;73.83;99253.19;5038362;28;20241;-69
2022/09/08 00:19:48;;;;;;;8.60;4.43;;;;;;;9.86;73.59;99244.47;5056676;28;20149;-64
2022/09/08 00:22:13;;;;;;;5.53;3.92;;;;;;;9.86;73.26;99249.78;5054702;28;20035;-64
2022/09/08 00:24:38;;;;;;;4.97;4.00;;;;;;;9.84;73.29;99249.91;5055001;28;20127;-63
2022/09/08 00:27:02;;;;;;;6.07;4.38;;;;;;;9.84;73.89;99241.91;5055282;28;20047;-62
2022/09/08 00:29:27;;;;;;;4.10;3.70;;;;;;;9.83;73.76;99249.03;5019753;28;20050;-63
2022/09/08 00:31:52;;;;;;;7.22;3.95;;;;;;;9.83;73.81;99246.38;5054910;28;20044;-62
2022/09/08 00:34:17;;;;;;;4.88;3.60;;;;;;;9.83;73.38;99251.72;5055297;28;20447;-65
2022/09/08 00:36:42;;;;;;;4.72;3.75;;;;;;;9.80;73.47;99246.63;5054847;28;20044;-64
2022/09/08 00:39:08;;;;;;;6.03;4.00;;;;;;;9.84;73.11;99256.06;5054725;28;20051;-64
2022/09/08 00:41:33;;;;;;;4.20;3.70;;;;;;;9.84;73.48;99253.41;5019521;28;20036;-64
2022/09/08 00:43:59;;;;;;;5.80;4.38;;;;;;;9.84;73.32;99256.06;5053511;28;20058;-64
2022/09/08 00:46:31;;;;;;;4.93;3.80;;;;;;;9.89;73.70;99254.91;5036830;28;20067;-63
2022/09/08 00:49:10;;;;;;;6.25;4.38;;;;;;;9.94;73.38;99258.03;5055057;28;20115;-64
2022/09/08 00:51:39;;;;;;;5.85;3.67;;;;;;;9.87;73.16;99255.00;5019444;28;20406;-62
2022/09/08 00:54:03;;;;;;;5.63;4.07;;;;;;;9.85;73.02;99254.25;5054543;28;20035;-62
2022/09/08 00:56:29;;;;;;;6.32;4.55;;;;;;;9.87;73.49;99262.13;5035417;28;20036;-62
2022/09/08 00:58:55;;;;;;;5.53;3.63;;;;;;;9.84;72.98;99241.91;5052500;28;20130;-63
2022/09/08 01:01:19;;;;;;;5.60;3.83;;;;;;;9.85;73.26;99254.25;5053734;28;20502;-64
2022/09/08 01:03:45;;;;;;;6.68;3.15;;;;;;;9.84;73.39;99256.06;5054115;28;20406;-64
2022/09/08 01:15:09;;;;;;;3.80;3.05;;;;;;;9.71;72.81;99257.09;5035338;28;20043;-64
2022/09/08 01:17:34;;;;;;;5.80;3.45;;;;;;;9.69;73.60;99257.22;5054660;28;20044;-66
2022/09/08 01:20:01;;;;;;;5.22;3.88;;;;;;;9.67;74.00;99260.97;5054620;28;20044;-64
2022/09/08 01:22:58;;;;;;;4.10;3.30;;;;;;;9.75;73.65;99267.41;5019322;28;20828;-63
2022/09/08 01:26:01;;;;;;;4.72;3.50;;;;;;;9.76;73.72;99263.78;5036637;28;20181;-63
2022/09/08 01:28:34;;;;;;;4.75;3.72;;;;;;;9.75;73.55;99261.25;5036426;28;20084;-63
2022/09/08 01:31:02;;;;;;;5.90;3.17;;;;;;;9.71;73.41;99271.25;5054822;28;20135;-64
2022/09/08 01:33:29;;;;;;;3.97;3.20;;;;;;;9.72;72.88;99264.97;5054428;28;20101;-64
2022/09/08 01:35:54;;;;;;;3.85;2.90;;;;;;;9.70;73.29;99266.91;5035102;28;20561;-64
2022/09/08 01:38:19;;;;;;;5.80;3.25;;;;;;;9.69;73.09;99269.69;5053457;28;20458;-63
2022/09/08 01:40:44;;;;;;;5.10;3.25;;;;;;;9.66;73.22;99270.75;5053376;28;20040;-67
2022/09/08 01:43:09;;;;;;;4.03;3.35;;;;;;;9.65;73.14;99271.72;5036203;28;20032;-64
2022/09/08 01:45:35;;;;;;;4.82;3.22;;;;;;;9.68;72.82;99278.63;5053811;28;20048;-63
2022/09/08 01:48:00;;;;;;;3.90;3.33;;;;;;;9.70;73.23;99272.25;5035144;28;20060;-64
2022/09/08 01:50:25;;;;;;;3.50;2.55;;;;;;;9.71;72.98;99273.91;5054089;28;20059;-73
2022/09/08 01:52:50;;;;;;;5.75;3.28;;;;;;;9.74;72.77;99279.03;5052709;28;20036;-65
2022/09/08 01:55:15;;;;;;;3.30;2.97;;;;;;;9.74;72.54;99268.38;5053512;28;20040;-64
2022/09/08 01:57:40;;;;;;;5.57;3.80;;;;;;;9.75;72.42;99280.72;5035102;28;20047;-64
2022/09/08 02:00:06;;;;;;;4.85;3.17;;;;;;;9.74;72.43;99278.16;5035099;28;20059;-65
2022/09/08 02:02:31;;;;;;;3.80;3.35;;;;;;;9.73;72.27;99276.47;5035174;28;20558;-64
2022/09/08 02:04:56;;;;;;;4.05;3.28;;;;;;;9.75;72.53;99279.88;5032334;28;20051;-66
2022/09/08 02:07:21;;;;;;;4.15;3.40;;;;;;;9.76;72.87;99282.44;5051519;28;20040;-67
2022/09/08 02:09:46;;;;;;;6.60;3.80;;;;;;;9.77;72.34;99284.13;5054067;28;20615;-63
2022/09/08 02:12:11;;;;;;;4.38;3.63;;;;;;;9.79;72.16;99281.34;5056521;28;20036;-62
2022/09/08 02:14:36;;;;;;;5.25;3.88;;;;;;;9.79;71.97;99281.34;5016914;28;20055;-62
2022/09/08 02:17:01;;;;;;;4.03;3.40;;;;;;;9.79;72.07;99290.19;5035254;28;20032;-62
2022/09/08 02:19:27;;;;;;;5.85;4.43;;;;;;;9.79;71.81;99284.88;5055694;28;20434;-63
2022/09/08 02:21:51;;;;;;;3.67;3.17;;;;;;;9.78;72.35;99293.81;5055327;28;20036;-63
2022/09/08 02:24:16;;;;;;;5.65;3.80;;;;;;;9.79;72.47;99292.84;5021403;28;20046;-63
2022/09/08 02:26:41;;;;;;;6.70;4.20;;;;;;;9.78;71.82;99292.97;5056046;28;20535;-63
2022/09/08 02:29:08;;;;;;;4.78;3.58;;;;;;;9.76;72.07;99292.22;5038416;28;20047;-62
2022/09/08 02:31:33;;;;;;;6.97;4.85;;;;;;;9.75;71.78;99288.72;5018192;28;20048;-63
2022/09/08 02:33:57;;;;;;;9.60;4.60;;;;;;;9.71;72.23;99297.88;5033883;28;20036;-62
2022/09/08 02:36:22;;;;;;;6.40;4.78;;;;;;;9.70;72.06;99292.69;5037117;28;20072;-62
2022/09/08 02:38:55;;;;;;;6.85;4.47;;;;;;;9.72;72.33;99301.38;5056155;28;20114;-63
2022/09/08 02:41:25;;;;;;;6.07;4.70;;;;;;;9.70;71.94;99303.34;5056868;28;20051;-62
2022/09/08 02:43:49;;;;;;;8.00;5.43;;;;;;;9.68;72.23;99306.09;5058111;28;20047;-62
2022/09/08 02:46:15;;;;;;;10.98;5.78;;;;;;;9.68;71.35;99306.09;5035250;28;20036;-62
2022/09/08 02:48:40;;;;;;;8.13;6.00;;;;;;;9.67;71.49;99300.88;5055046;28;20048;-62
2022/09/08 02:51:06;;;;;;;8.95;6.03;;;;;;;9.66;71.76;99305.34;5058380;28;20398;-63
2022/09/08 02:53:32;;;;;;;10.55;6.15;;;;;;;9.66;71.46;99304.50;5039298;28;20128;-63
2022/09/08 02:55:58;;;;;;;6.85;4.40;;;;;;;9.64;71.58;99312.59;5057404;28;20063;-70
2022/09/08 02:58:23;;;;;;;5.75;4.43;;;;;;;9.63;70.90;99310.03;5056575;28;20048;-70
2022/09/08 03:00:48;;;;;;;5.68;4.07;;;;;;;9.61;70.60;99307.50;5038133;28;20080;-70
2022/09/08 03:03:14;;;;;;;6.57;4.43;;;;;;;9.59;71.02;99314.75;5019708;28;20044;-72
2022/09/08 03:05:38;;;;;;;6.63;4.78;;;;;;;9.55;70.81;99321.25;5055330;28;20040;-68
2022/09/08 03:08:04;;;;;;;7.22;4.72;;;;;;;9.48;71.63;99323.50;5054722;28;20051;-68
2022/09/08 03:10:30;;;;;;;6.55;4.53;;;;;;;9.48;71.57;99325.31;5055555;28;20457;-70
2022/09/08 03:12:55;;;;;;;5.80;4.25;;;;;;;9.48;71.63;99327.97;5054504;28;20452;-69
2022/09/08 03:15:23;;;;;;;7.68;5.35;;;;;;;9.51;71.55;99341.06;5056351;28;20084;-68
2022/09/08 03:17:47;;;;;;;7.10;4.55;;;;;;;9.54;71.86;99334.66;5021723;28;20048;-69
2022/09/08 03:20:13;;;;;;;8.65;5.70;;;;;;;9.54;71.84;99332.88;5057263;28;20101;-68
2022/09/08 03:22:38;;;;;;;7.82;5.28;;;;;;;9.56;71.73;99336.28;5057185;28;20042;-66
2022/09/08 03:25:03;;;;;;;11.02;5.57;;;;;;;9.57;71.80;99345.09;5057677;28;20043;-67
2022/09/08 03:27:28;;;;;;;8.50;6.68;;;;;;;9.55;71.84;99333.72;5057442;28;20116;-65
2022/09/08 03:29:54;;;;;;;8.00;5.82;;;;;;;9.54;71.85;99345.31;5056363;28;20044;-67
2022/09/08 03:32:19;;;;;;;8.77;6.28;;;;;;;9.54;72.20;99342.66;5056203;28;20130;-66
2022/09/08 03:34:44;;;;;;;9.48;6.07;;;;;;;9.56;72.75;99346.06;5056607;28;20147;-67
2022/09/08 03:37:08;;;;;;;8.70;5.93;;;;;;;9.56;72.11;99351.38;5059346;28;20498;-68
2022/09/08 03:39:33;;;;;;;7.65;5.60;;;;;;;9.57;72.44;99350.44;5056788;28;20039;-68
2022/09/08 03:41:58;;;;;;;9.32;4.93;;;;;;;9.59;72.49;99348.50;5056455;28;20078;-69
2022/09/08 03:44:22;;;;;;;8.95;5.30;;;;;;;9.58;72.56;99352.97;5062438;28;20048;-70
2022/09/08 03:46:47;;;;;;;7.07;4.82;;;;;;;9.61;72.68;99351.88;5068296;28;20370;-69
2022/09/08 03:49:12;;;;;;;7.45;4.85;;;;;;;9.60;72.15;99358.16;5066261;28;20070;-70
2022/09/08 03:51:37;;;;;;;6.93;4.20;;;;;;;9.61;72.60;99358.06;5057070;28;20048;-69
2022/09/08 03:56:48;;;;;;;6.72;4.38;;;;;;;9.57;72.71;99371.72;5056173;28;20132;-61
2022/09/08 03:59:12;;;;;;;5.78;4.35;;;;;;;9.55;73.18;99379.81;5056986;28;20510;-69
2022/09/08 04:01:37;;;;;;;6.40;4.47;;;;;;;9.55;73.46;99371.81;5038401;28;20509;-69
2022/09/08 04:04:03;;;;;;;6.25;4.95;;;;;;;9.56;73.27;99376.19;5038059;28;20044;-71
2022/09/08 04:06:29;;;;;;;9.57;5.72;;;;;;;9.54;73.67;99383.44;5058671;28;20104;-70
2022/09/08 04:08:53;;;;;;;8.60;5.53;;;;;;;9.55;73.54;99374.47;5056014;28;20044;-71
2022/09/08 04:11:18;;;;;;;6.57;4.35;;;;;;;9.59;73.39;99378.63;5061009;28;20089;-70
2022/09/08 04:13:43;;;;;;;5.75;4.38;;;;;;;9.64;73.55;99378.28;5057289;28;20039;-71
2022/09/08 04:16:08;;;;;;;7.03;4.47;;;;;;;9.68;73.96;99383.28;5057042;28;20046;-69
2022/09/08 04:18:32;;;;;;;6.65;4.78;;;;;;;9.72;73.48;99382.09;5037424;28;20574;-69
2022/09/08 04:20:59;;;;;;;6.88;4.60;;;;;;;9.80;73.75;99387.75;5038429;28;20406;-69
2022/09/08 04:23:24;;;;;;;6.18;4.55;;;;;;;9.92;73.59;99387.81;5055757;28;20032;-70
2022/09/08 04:26:00;;;;;;;7.93;5.82;;;;;;;10.08;73.50;99389.22;5037376;28;20134;-69
2022/09/08 04:28:26;;;;;;;6.65;5.05;;;;;;;10.10;72.75;99386.44;5056560;28;20047;-69
2022/09/08 04:30:51;;;;;;;5.65;4.97;;;;;;;10.12;71.96;99379.19;5055844;28;20508;-68
2022/09/08 04:33:15;;;;;;;5.68;4.50;;;;;;;10.13;71.82;99376.44;5055671;28;20494;-69
2022/09/08 04:35:40;;;;;;;5.95;4.55;;;;;;;10.11;71.59;99375.69;5055346;28;20089;-70
2022/09/08 04:38:05;;;;;;;5.88;4.13;;;;;;;10.09;71.24;99387.41;5055558;28;20104;-70
2022/09/08 04:40:30;;;;;;;4.78;3.80;;;;;;;10.02;71.23;99379.03;5055622;28;20048;-70
2022/09/08 04:42:54;;;;;;;6.30;4.90;;;;;;;9.95;71.57;99380.44;5037467;28;20067;-70
2022/09/08 04:45:19;;;;;;;6.50;4.88;;;;;;;9.93;71.53;99389.50;5055946;28;20088;-70
2022/09/08 04:47:44;;;;;;;11.77;5.45;;;;;;;9.89;72.00;99382.69;5055580;28;20043;-70
2022/09/08 04:50:09;;;;;;;7.00;4.97;;;;;;;9.87;71.97;99389.94;5042453;28;20051;-70
2022/09/08 04:52:34;;;;;;;7.40;4.70;;;;;;;9.87;71.86;99395.25;5056856;28;20131;-62
2022/09/08 04:54:59;;;;;;;6.68;4.97;;;;;;;9.81;71.59;99393.91;5055019;28;20052;-62
2022/09/08 04:57:24;;;;;;;10.15;5.95;;;;;;;9.79;71.81;99394.03;5054294;28;20394;-61
2022/09/08 04:59:49;;;;;;;7.05;5.55;;;;;;;9.80;72.04;99401.06;5054773;28;20056;-61
2022/09/08 05:02:14;;;;;;;5.70;4.30;;;;;;;9.81;71.72;99401.91;5059043;28;20043;-61
2022/09/08 05:04:38;;;;;;;7.85;4.53;;;;;;;9.84;71.36;99413.16;5036975;28;20048;-60
2022/09/08 05:07:03;;;;;;;6.18;4.53;;;;;;;9.88;71.57;99408.47;5054937;28;20498;-61
2022/09/08 05:09:28;;;;;;;7.78;5.65;;;;;;;9.95;70.83;99408.88;5054856;28;20043;-60
2022/09/08 05:11:53;;;;;;;7.15;4.57;;;;;;;10.01;70.35;99411.94;5019671;28;20423;-60
2022/09/08 05:14:18;;;;;;;5.65;4.75;;;;;;;10.10;69.88;99413.09;5056203;28;20043;-64
2022/09/08 05:16:42;;;;;;;4.68;4.00;;;;;;;10.22;69.57;99411.38;5037051;28;20043;-62
2022/09/08 05:19:07;;;;;;;5.85;4.28;;;;;;;10.40;69.81;99404.66;5056259;28;20066;-62
2022/09/08 05:21:34;;;;;;;6.13;3.65;;;;;;;10.68;68.64;99414.13;5057335;28;20134;-61
2022/09/08 05:24:00;;;;;;;4.47;3.60;;;;;;;10.96;67.32;99413.72;5054715;28;20073;-61
2022/09/08 05:26:25;;;;;;;4.43;3.58;;;;;;;11.11;66.36;99417.88;5054910;28;20093;-62
2022/09/08 05:28:50;;;;;;;6.40;3.45;;;;;;;11.15;65.42;99423.84;5055137;28;20044;-62
2022/09/08 05:31:20;;;;;;;6.60;4.10;;;;;;;11.11;65.96;99425.03;5054466;28;20068;-61
2022/09/08 05:33:45;;;;;;;4.20;3.40;;;;;;;11.01;65.06;99424.03;5054802;28;20143;-62
2022/09/08 05:36:13;;;;;;;5.68;3.67;;;;;;;10.89;65.38;99426.69;5053747;28;20047;-62
2022/09/08 05:38:38;;;;;;;5.05;3.10;;;;;;;10.73;65.28;99423.47;5054005;28;20075;-62
2022/09/08 05:41:03;;;;;;;5.25;3.70;;;;;;;10.60;66.12;99435.19;5053886;28;20082;-62
2022/09/08 05:43:28;;;;;;;4.28;3.42;;;;;;;10.57;66.08;99432.75;5035930;28;20068;-62
2022/09/08 05:45:52;;;;;;;3.60;3.03;;;;;;;10.70;66.80;99434.38;5057564;28;20083;-61
2022/09/08 05:48:17;;;;;;;5.18;4.07;;;;;;;10.94;65.47;99437.00;5039965;28;20126;-61
2022/09/08 05:50:46;;;;;;;6.00;4.55;;;;;;;11.15;65.26;99439.84;5058783;28;20169;-64
2022/09/08 05:53:12;;;;;;;6.15;4.03;;;;;;;11.24;64.08;99439.97;5060901;28;20080;-61
2022/09/08 05:55:37;;;;;;;4.15;3.47;;;;;;;11.22;63.34;99441.06;5040203;28;20383;-62
2022/09/08 05:58:02;;;;;;;5.65;3.97;;;;;;;11.19;62.94;99439.47;5058101;28;20070;-62
2022/09/08 06:00:28;;;;;;;5.72;3.90;;;;;;;11.15;62.72;99442.50;5057742;28;20134;-62
2022/09/08 06:02:53;;;;;;;6.90;3.80;;;;;;;11.14;63.04;99449.66;5057906;28;20490;-62
2022/09/08 06:05:22;;;;;;;6.20;3.60;;;;;;;11.15;63.54;99450.50;5031541;28;20487;-61
2022/09/08 06:07:48;;;;;;;9.00;4.00;;;;;;;11.04;63.42;99456.69;5022841;28;20115;-61
2022/09/08 06:10:13;;;;;;;4.82;3.67;;;;;;;10.89;64.07;99445.34;5048455;28;20042;-71
2022/09/08 06:12:38;;;;;;;4.82;3.60;;;;;;;10.75;64.76;99447.34;5064273;28;20087;-70
2022/09/08 06:15:04;;;;;;;5.72;4.20;;;;;;;10.59;65.10;99447.66;5063236;28;20044;-69
2022/09/08 06:17:29;;;;;;;7.53;4.40;;;;;;;10.53;66.32;99445.44;5059341;28;20098;-61
2022/09/08 06:19:54;;;;;;;6.90;4.10;;;;;;;10.57;66.86;99459.41;5056164;28;20035;-61
2022/09/08 06:22:19;;;;;;;9.68;5.03;;;;;;;10.61;67.71;99451.03;5039302;28;20036;-61
2022/09/08 06:24:44;;;;;;;7.50;5.78;;;;;;;10.79;67.11;99459.50;5057761;28;20410;-61
2022/09/08 06:27:41;;;;;;;8.98;6.78;;;;;;;10.98;66.49;99448.28;5022630;28;20051;-61
2022/09/08 06:30:15;;;;;;;6.78;4.40;;;;;;;10.98;66.23;99458.94;5049901;28;20041;-62
2022/09/08 06:32:52;;;;;;;7.83;4.67;;;;;;;10.89;66.42;99464.00;5037294;28;20131;-62
2022/09/08 06:35:29;;;;;;;6.43;4.78;;;;;;;10.85;66.34;99469.69;5019173;28;20048;-62
2022/09/08 06:38:02;;;;;;;7.72;5.43;;;;;;;10.80;66.51;99466.53;5037201;28;20530;-61
2022/09/08 06:40:35;;;;;;;7.03;4.70;;;;;;;10.78;66.17;99479.97;5037216;28;20048;-62
2022/09/08 06:43:19;;;;;;;7.40;4.78;;;;;;;10.81;66.74;99470.91;5023488;28;20044;-62
2022/09/08 06:45:49;;;;;;;10.23;6.13;;;;;;;10.78;67.04;99487.97;5037051;28;20521;-61
2022/09/08 06:48:34;;;;;;;9.38;5.35;;;;;;;10.88;66.50;99488.13;5037609;28;20044;-60
2022/09/08 06:51:02;;;;;;;6.95;4.38;;;;;;;10.86;66.69;99490.06;5037233;28;20403;-61
2022/09/08 06:53:52;;;;;;;6.97;4.28;;;;;;;11.02;67.18;99497.75;5037173;28;20049;-61
2022/09/08 06:56:39;;;;;;;6.00;4.35;;;;;;;11.26;65.38;99491.41;5010756;28;20044;-61
2022/09/08 06:59:26;;;;;;;5.88;4.03;;;;;;;11.58;65.19;99496.06;5040802;28;20044;-63
2022/09/08 07:01:52;;;;;;;8.15;4.57;;;;;;;12.07;63.62;99501.13;5039958;28;20044;-62
2022/09/08 07:04:53;;;;;;;7.88;4.40;;;;;;;12.47;62.51;99490.72;5036858;28;20033;-62
2022/09/08 07:07:41;;;;;;;5.85;4.15;;;;;;;12.55;61.11;99498.09;5019143;28;20047;-64
2022/09/08 07:10:33;;;;;;;7.75;4.78;;;;;;;12.48;60.87;99497.75;5036474;28;20040;-62
2022/09/08 07:13:36;;;;;;;5.50;4.00;;;;;;;12.38;61.53;99507.50;5019066;28;20044;-65
2022/09/08 07:16:33;;;;;;;6.45;3.97;;;;;;;12.21;61.04;99508.84;5036636;28;20052;-71
2022/09/08 07:19:04;;;;;;;5.70;4.18;;;;;;;12.02;61.06;99511.31;5035350;28;20040;-72
2022/09/08 07:21:33;;;;;;;6.05;4.18;;;;;;;11.78;61.72;99513.25;5037925;28;20411;-71
2022/09/08 07:24:00;;;;;;;7.35;4.28;;;;;;;11.61;62.56;99515.38;5038560;28;20083;-61
2022/09/08 07:26:28;;;;;;;6.78;4.75;;;;;;;11.50;63.65;99519.84;5036666;28;20041;-61
2022/09/08 07:28:56;;;;;;;5.72;3.80;;;;;;;11.48;62.50;99519.13;5036483;28;20106;-61
2022/09/08 07:31:24;;;;;;;6.28;3.75;;;;;;;11.53;62.42;99512.44;5036110;28;20051;-60
2022/09/08 07:34:09;;;;;;;5.35;3.15;;;;;;;11.68;62.34;99520.25;5036383;28;20086;-61
2022/09/08 07:36:41;;;;;;;;;;;;;;;11.97;62.78;99518.81;5036206;28;20040;-60
2022/09/08 07:39:21;;;;;;;4.75;3.55;;;;;;;11.99;61.92;99519.56;5000988;28;19916;-63
2022/09/08 07:41:49;;;;;;;12.02;3.67;;;;;;;11.99;62.43;99524.91;5018150;28;20036;-60
2022/09/08 07:44:17;;;;;;;6.43;4.07;;;;;;;12.57;61.81;99523.75;5018752;28;20044;-60
2022/09/08 07:47:12;;;;;;;6.20;4.00;;;;;;;13.35;59.60;99515.44;5036431;28;20491;-60
2022/09/08 07:50:14;;;;;;;5.45;3.53;;;;;;;13.72;58.50;99525.69;5036542;28;20097;-62
2022/09/08 07:53:10;;;;;;;7.47;3.80;;;;;;;13.62;57.46;99522.09;5036369;28;20036;-62
2022/09/08 07:55:38;;;;;;;7.32;3.70;;;;;;;13.30;57.73;99525.72;5036043;28;20154;-61
2022/09/08 07:58:13;;;;;;;8.00;3.83;;;;;;;13.07;59.22;99530.28;5035954;28;20120;-61
2022/09/08 08:00:44;;;;;;;6.47;3.90;;;;;;;12.86;59.80;99531.22;5036559;28;20044;-60
2022/09/08 08:03:21;;;;;;;5.07;3.05;;;;;;;12.65;59.13;99536.47;5056275;28;20040;-61
2022/09/08 08:05:58;;;;;;;3.92;3.25;;;;;;;12.35;59.87;99530.00;5055829;28;20073;-61
2022/09/08 08:08:31;;;;;;;4.10;2.78;;;;;;;12.23;60.45;99541.66;5055701;28;20123;-71
2022/09/08 08:11:08;;;;;;;4.20;2.75;;;;;;;12.65;59.76;99542.69;5054350;28;20223;-70
2022/09/08 08:13:50;;;;;;;5.28;3.25;;;;;;;13.67;56.78;99536.78;5036438;28;20049;-60
2022/09/08 08:16:27;;;;;;;3.17;2.88;;;;;;;15.70;53.10;99531.88;5035337;28;20544;-61
2022/09/08 08:19:07;;;;;;;5.82;3.08;;;;;;;19.16;45.12;99539.63;5035425;28;20052;-61
2022/09/08 08:21:38;;;;;;;5.00;2.75;;;;;;;21.64;39.80;99534.72;5017283;28;20044;-61
2022/09/08 08:24:11;;;;;;;6.50;3.08;;;;;;;22.30;37.41;99535.78;5033774;28;20446;-62
2022/09/08 08:26:49;;;;;;;8.10;3.75;;;;;;;22.11;38.62;99541.78;5035485;28;20045;-61
2022/09/08 08:29:42;;;;;;;5.70;3.63;;;;;;;21.34;39.69;99534.59;5017202;28;20491;-60
2022/09/08 08:32:16;;;;;;;4.68;3.58;;;;;;;20.48;39.31;99533.91;5035165;28;20044;-59
2022/09/08 08:34:49;;;;;;;7.15;4.30;;;;;;;19.42;41.58;99539.44;5034820;28;20105;-59
2022/09/08 08:37:20;;;;;;;5.25;3.50;;;;;;;18.13;42.76;99543.44;5017505;28;20538;-59
2022/09/08 08:39:48;;;;;;;7.38;3.55;;;;;;;16.94;45.10;99545.78;5017421;28;20052;-59
2022/09/08 08:42:35;;;;;;;9.20;3.80;;;;;;;16.12;48.27;99549.34;5046059;28;20042;-61
2022/09/08 08:45:25;;;;;;;5.68;3.75;;;;;;;15.28;50.82;99556.38;5055504;28;20470;-60
2022/09/08 08:48:02;;;;;;;7.32;3.78;;;;;;;14.59;51.88;99559.09;5037130;28;20044;-59
2022/09/08 08:50:56;;;;;;;4.55;3.47;;;;;;;14.24;53.27;99564.03;5056577;28;20410;-70
2022/09/08 08:53:51;;;;;;;5.45;3.50;;;;;;;14.20;54.34;99562.63;5037372;28;20565;-70
2022/09/08 08:56:47;;;;;;;4.32;3.05;;;;;;;14.48;54.28;99554.69;5037041;28;20497;-70
2022/09/08 08:59:27;;;;;;;6.38;3.97;;;;;;;14.86;52.82;99570.06;5056158;28;20071;-71
2022/09/08 09:02:14;;;;;;;4.50;3.30;;;;;;;15.10;52.35;99566.97;5061534;28;20086;-61
2022/09/08 09:04:57;;;;;;;8.98;3.83;;;;;;;14.74;52.26;99568.47;5056446;28;20052;-62
2022/09/08 09:08:00;;;;;;;8.38;3.97;;;;;;;14.45;52.95;99576.41;5053356;28;20048;-61
2022/09/08 09:10:43;;;;;;;3.72;2.55;;;;;;;13.92;52.80;99575.72;5056774;28;20047;-61
2022/09/08 09:13:35;;;;;;;2.83;2.53;;;;;;;13.51;53.92;99583.78;5060819;28;20044;-61
2022/09/08 09:16:23;;;;;;;3.72;3.00;;;;;;;13.19;54.60;99598.03;5055813;28;20116;-61
2022/09/08 09:19:00;;;;;;;2.80;2.50;;;;;;;13.07;55.17;99583.81;5055019;28;20082;-61
2022/09/08 09:22:00;;;;;;;5.63;2.97;;;;;;;13.08;55.76;99590.03;5054683;28;20044;-60
2022/09/08 09:24:57;;;;;;;5.25;2.67;;;;;;;13.10;55.56;99596.91;5054719;28;20102;-61
2022/09/08 09:27:44;;;;;;;3.17;2.65;;;;;;;13.20;55.44;99601.56;5054530;28;20059;-61
2022/09/08 09:30:14;;;;;;;2.50;2.30;;;;;;;13.12;55.35;99595.94;5054255;28;20068;-60
2022/09/08 09:33:11;;;;;;;4.57;3.17;;;;;;;13.06;55.05;99595.50;5046359;28;20135;-60
2022/09/08 09:35:58;;;;;;;4.53;2.70;;;;;;;13.17;55.47;99600.00;5015028;28;20040;-60
2022/09/08 09:38:37;;;;;;;4.72;2.67;;;;;;;13.27;54.88;99600.91;5031793;28;20048;-61
2022/09/08 09:41:32;;;;;;;5.32;2.75;;;;;;;13.30;55.42;99600.69;5031808;28;20624;-60
2022/09/08 09:44:06;;;;;;;;;;;;;;;13.37;55.15;99607.22;5032522;28;20123;-59
2022/09/08 09:46:51;;;;;;;3.33;2.58;;;;;;;13.08;55.97;99616.78;5031602;28;19916;-60
2022/09/08 09:49:25;;;;;;;2.97;2.25;;;;;;;12.75;55.92;99616.84;5032135;28;20434;-60
2022/09/08 09:52:29;;;;;;;4.70;2.67;;;;;;;12.50;57.05;99618.81;4998474;28;20140;-60
2022/09/08 09:55:12;;;;;;;4.38;2.20;;;;;;;12.38;57.60;99621.63;5031287;28;20512;-61
2022/09/08 09:58:14;;;;;;;2.60;1.92;;;;;;;12.41;57.68;99621.38;5031842;28;20161;-61
2022/09/08 10:01:16;;;;;;;2.75;2.15;;;;;;;12.39;57.50;99631.34;5031889;28;20028;-61
2022/09/08 10:04:11;;;;;;;2.75;2.47;;;;;;;12.27;57.36;99639.34;5031292;28;20045;-61
2022/09/08 10:06:42;;;;;;;2.63;2.00;;;;;;;12.11;57.85;99643.31;5015198;28;20127;-60
2022/09/08 10:09:47;;;;;;;4.47;2.50;;;;;;;12.15;58.45;99634.97;5031595;28;20044;-60
2022/09/08 10:12:30;;;;;;;8.63;2.80;;;;;;;12.23;58.31;99635.22;5031932;28;20409;-61
2022/09/08 10:15:23;;;;;;;5.80;2.35;;;;;;;12.75;56.72;99641.78;5035751;28;20562;-61
2022/09/08 10:18:03;;;;;;;2.67;2.13;;;;;;;13.40;55.83;99635.56;5019241;28;20043;-61
2022/09/08 10:20:43;;;;;;;26.67;5.60;;;;;;;14.23;54.09;99637.41;5053546;28;20133;-60
2022/09/08 10:23:30;;;;;;;4.47;3.03;;;;;;;14.99;52.42;99644.97;5036221;28;20067;-62
2022/09/08 10:26:16;;;;;;;4.93;2.85;;;;;;;15.27;51.17;99644.16;5053538;28;20048;-60
2022/09/08 10:29:15;;;;;;;6.03;2.58;;;;;;;15.32;50.94;99641.06;5053349;28;20040;-61
2022/09/08 10:31:54;;;;;;;4.45;2.05;;;;;;;15.32;49.89;99643.75;5056177;28;20054;-61
2022/09/08 10:34:37;;;;;;;4.40;2.50;;;;;;;15.37;49.95;99651.38;5058667;28;20131;-61
2022/09/08 10:37:04;;;;;;;1.90;1.75;;;;;;;15.01;49.21;99650.22;5057768;28;20387;-61
2022/09/08 10:40:13;;;;;;;5.20;2.38;;;;;;;14.73;51.02;99659.84;5058001;28;20051;-60
2022/09/08 10:43:01;;;;;;;4.88;2.45;;;;;;;14.27;51.70;99662.97;5057280;28;20100;-61
2022/09/08 10:45:45;;;;;;;2.25;2.05;;;;;;;13.90;52.09;99660.75;5039431;28;20086;-60
2022/09/08 10:48:50;;;;;;;5.18;2.35;;;;;;;13.64;52.47;99665.66;5057787;28;20560;-59
2022/09/08 10:51:23;;;;;;;3.33;2.20;;;;;;;13.33;52.77;99669.16;5057433;28;20039;-60
2022/09/08 10:54:34;;;;;;;2.55;2.20;;;;;;;13.24;53.46;99670.78;5057324;28;20078;-60
2022/09/08 10:56:59;;;;;;;3.05;2.20;;;;;;;13.02;53.71;99674.31;5057219;28;20048;-60
2022/09/08 10:59:54;;;;;;;2.05;1.83;;;;;;;13.07;53.82;99676.63;5057870;28;20044;-61
2022/09/08 11:02:33;;;;;;;4.15;2.72;;;;;;;13.18;53.98;99678.47;5064020;28;20044;-60
2022/09/08 11:05:19;;;;;;;7.10;2.30;;;;;;;13.28;53.84;99684.78;5057270;28;20044;-59
2022/09/08 11:07:54;;;;;;;2.20;1.83;;;;;;;13.36;53.73;99679.63;5057701;28;20067;-61
2022/09/08 11:10:25;;;;;;;7.85;2.67;;;;;;;13.54;52.99;99678.13;5057271;28;20043;-62
2022/09/08 11:13:22;;;;;;;2.88;2.15;;;;;;;13.83;52.46;99675.66;5057184;28;20044;-62
2022/09/08 11:16:09;;;;;;;4.70;1.50;;;;;;;14.01;51.75;99678.63;5014898;28;20087;-61
2022/09/08 11:18:46;;;;;;;3.80;2.35;;;;;;;14.30;51.55;99678.81;5014894;28;20048;-61
2022/09/08 11:21:25;;;;;;;4.97;2.00;;;;;;;14.48;51.01;99672.72;5015110;28;20056;-61
2022/09/08 11:24:15;;;;;;;5.65;2.25;;;;;;;14.57;50.75;99684.47;5014278;28;20525;-63
2022/09/08 11:27:11;;;;;;;6.90;2.30;;;;;;;14.63;49.95;99681.28;5018522;28;20396;-63
2022/09/08 11:29:37;;;;;;;4.05;2.28;;;;;;;14.54;49.78;99682.09;5034276;28;20434;-64
2022/09/08 11:32:14;;;;;;;3.85;2.72;;;;;;;14.57;49.78;99680.94;5034592;28;20221;-63
2022/09/08 11:34:55;;;;;;;6.32;2.65;;;;;;;14.50;49.91;99678.81;5016857;28;20044;-62
2022/09/08 11:37:41;;;;;;;2.38;1.85;;;;;;;14.35;50.08;99680.09;5034773;28;20452;-62
2022/09/08 11:40:33;;;;;;;6.50;2.00;;;;;;;14.12;50.70;99687.44;5034481;28;20055;-63
2022/09/08 11:43:10;;;;;;;5.07;2.00;;;;;;;13.72;50.70;99686.44;5000058;28;20418;-62
2022/09/08 11:46:03;;;;;;;5.25;2.65;;;;;;;13.50;52.03;99691.88;5017610;28;20048;-63
2022/09/08 11:48:49;;;;;;;6.43;1.95;;;;;;;13.12;52.93;99697.66;4955912;28;20930;-62
2022/09/08 11:51:26;;;;;;;3.10;2.20;;;;;;;12.73;53.81;99699.91;4939674;28;20038;-63
2022/09/08 11:54:06;;;;;;;2.08;1.63;;;;;;;12.42;54.95;99704.13;4969331;28;20053;-64
2022/09/08 11:57:08;;;;;;;1.92;1.75;;;;;;;12.21;55.55;99713.81;4975816;28;20110;-65
2022/09/08 12:00:10;;;;;;;3.65;2.15;;;;;;;11.98;57.55;99707.53;4975322;28;20068;-65
2022/09/08 12:02:56;;;;;;;12.60;3.33;;;;;;;12.02;57.14;99713.50;4974118;28;20045;-65
2022/09/08 12:05:45;;;;;;;7.25;3.20;;;;;;;12.15;58.83;99703.59;4974457;28;20468;-70
2022/09/08 12:08:22;;;;;;;3.60;2.80;;;;;;;12.32;58.57;99700.47;4958202;28;20038;-64
2022/09/08 12:11:02;;;;;;;6.75;3.15;;;;;;;12.61;56.80;99699.03;4978842;28;20046;-63
2022/09/08 12:13:56;;;;;;;3.30;2.65;;;;;;;12.71;56.36;99700.03;4977647;28;20522;-63
2022/09/08 12:16:47;;;;;;;5.13;3.03;;;;;;;12.62;56.40;99703.44;4954051;28;20038;-63
2022/09/08 12:19:28;;;;;;;4.43;3.22;;;;;;;12.70;57.28;99711.69;4973979;28;20068;-67